sensor_id;sensor_type;location;lat;lon;timestamp;P1;durP1;ratioP1;P2;durP2;ratioP2
19903;SDS011;10114;50.970;4.962;2022-08-19T00:00:05;27.02;;;18.73;;
19903;SDS011;10114;50.970;4.962;2022-08-19T00:02:33;28.50;;;19.08;;
19903;SDS011;10114;50.970;4.962;2022-08-19T00:04:59;26.92;;;18.25;;
19903;SDS011;10114;50.970;4.962;2022-08-19T00:07:25;26.35;;;18.95;;
19903;SDS011;10114;50.970;4.962;2022-08-19T00:09:51;26.50;;;19.10;;
19903;SDS011;10114;50.970;4.962;2022-08-19T00:12:17;26.17;;;18.63;;
19903;SDS011;10114;50.970;4.962;2022-08-19T00:14:43;25.98;;;17.77;;
19903;SDS011;10114;50.970;4.962;2022-08-19T00:17:09;27.90;;;19.08;;
19903;SDS011;10114;50.970;4.962;2022-08-19T00:19:36;27.77;;;18.60;;
19903;SDS011;10114;50.970;4.962;2022-08-19T00:22:02;26.20;;;18.42;;
19903;SDS011;10114;50.970;4.962;2022-08-19T00:24:28;24.98;;;18.67;;
19903;SDS011;10114;50.970;4.962;2022-08-19T00:26:55;25.77;;;18.63;;
19903;SDS011;10114;50.970;4.962;2022-08-19T00:29:22;26.13;;;18.77;;
19903;SDS011;10114;50.970;4.962;2022-08-19T00:31:49;29.42;;;21.17;;
19903;SDS011;10114;50.970;4.962;2022-08-19T00:34:17;28.70;;;19.65;;
19903;SDS011;10114;50.970;4.962;2022-08-19T00:36:44;29.75;;;19.40;;
19903;SDS011;10114;50.970;4.962;2022-08-19T00:39:10;25.88;;;18.92;;
19903;SDS011;10114;50.970;4.962;2022-08-19T00:41:37;28.13;;;19.67;;
19903;SDS011;10114;50.970;4.962;2022-08-19T00:46:29;32.92;;;19.95;;
19903;SDS011;10114;50.970;4.962;2022-08-19T00:48:56;34.13;;;22.52;;
19903;SDS011;10114;50.970;4.962;2022-08-19T00:51:24;33.95;;;21.55;;
19903;SDS011;10114;50.970;4.962;2022-08-19T00:53:51;35.35;;;23.95;;
19903;SDS011;10114;50.970;4.962;2022-08-19T00:56:18;42.92;;;26.48;;
19903;SDS011;10114;50.970;4.962;2022-08-19T00:58:44;39.80;;;25.00;;
19903;SDS011;10114;50.970;4.962;2022-08-19T01:01:10;43.10;;;27.02;;
19903;SDS011;10114;50.970;4.962;2022-08-19T01:03:36;38.67;;;26.17;;
19903;SDS011;10114;50.970;4.962;2022-08-19T01:06:02;39.80;;;26.90;;
19903;SDS011;10114;50.970;4.962;2022-08-19T01:08:28;44.20;;;27.95;;
19903;SDS011;10114;50.970;4.962;2022-08-19T01:10:55;43.13;;;27.85;;
19903;SDS011;10114;50.970;4.962;2022-08-19T01:13:26;46.15;;;28.33;;
19903;SDS011;10114;50.970;4.962;2022-08-19T01:15:58;43.53;;;27.73;;
19903;SDS011;10114;50.970;4.962;2022-08-19T01:18:26;43.97;;;27.55;;
19903;SDS011;10114;50.970;4.962;2022-08-19T01:20:54;43.05;;;27.77;;
19903;SDS011;10114;50.970;4.962;2022-08-19T01:23:22;47.63;;;29.33;;
19903;SDS011;10114;50.970;4.962;2022-08-19T01:26:07;45.28;;;28.77;;
19903;SDS011;10114;50.970;4.962;2022-08-19T01:28:35;46.53;;;29.23;;
19903;SDS011;10114;50.970;4.962;2022-08-19T01:31:02;52.65;;;29.65;;
19903;SDS011;10114;50.970;4.962;2022-08-19T01:33:28;45.97;;;29.65;;
19903;SDS011;10114;50.970;4.962;2022-08-19T01:36:03;47.78;;;29.65;;
19903;SDS011;10114;50.970;4.962;2022-08-19T01:38:29;49.15;;;29.88;;
19903;SDS011;10114;50.970;4.962;2022-08-19T01:40:56;55.47;;;32.45;;
19903;SDS011;10114;50.970;4.962;2022-08-19T01:43:23;49.63;;;29.33;;
19903;SDS011;10114;50.970;4.962;2022-08-19T01:45:49;51.97;;;31.88;;
19903;SDS011;10114;50.970;4.962;2022-08-19T01:48:16;57.95;;;33.15;;
19903;SDS011;10114;50.970;4.962;2022-08-19T01:50:42;51.67;;;31.42;;
19903;SDS011;10114;50.970;4.962;2022-08-19T01:53:09;59.53;;;34.03;;
19903;SDS011;10114;50.970;4.962;2022-08-19T01:55:36;57.85;;;33.38;;
19903;SDS011;10114;50.970;4.962;2022-08-19T01:58:03;56.25;;;34.05;;
19903;SDS011;10114;50.970;4.962;2022-08-19T02:00:31;61.38;;;34.17;;
19903;SDS011;10114;50.970;4.962;2022-08-19T02:02:57;59.03;;;34.67;;
19903;SDS011;10114;50.970;4.962;2022-08-19T02:05:24;63.03;;;34.72;;
19903;SDS011;10114;50.970;4.962;2022-08-19T02:07:50;62.85;;;34.28;;
19903;SDS011;10114;50.970;4.962;2022-08-19T02:10:18;68.30;;;37.35;;
19903;SDS011;10114;50.970;4.962;2022-08-19T02:12:44;69.30;;;36.28;;
19903;SDS011;10114;50.970;4.962;2022-08-19T02:15:11;72.18;;;37.33;;
19903;SDS011;10114;50.970;4.962;2022-08-19T02:17:38;69.05;;;36.75;;
19903;SDS011;10114;50.970;4.962;2022-08-19T02:20:04;75.00;;;39.15;;
19903;SDS011;10114;50.970;4.962;2022-08-19T02:22:31;77.03;;;40.00;;
19903;SDS011;10114;50.970;4.962;2022-08-19T02:24:57;81.15;;;39.00;;
19903;SDS011;10114;50.970;4.962;2022-08-19T02:27:23;84.53;;;41.60;;
19903;SDS011;10114;50.970;4.962;2022-08-19T02:29:50;86.30;;;42.58;;
19903;SDS011;10114;50.970;4.962;2022-08-19T02:32:17;82.97;;;41.28;;
19903;SDS011;10114;50.970;4.962;2022-08-19T02:34:44;88.78;;;42.88;;
19903;SDS011;10114;50.970;4.962;2022-08-19T02:37:10;90.20;;;43.47;;
19903;SDS011;10114;50.970;4.962;2022-08-19T02:39:57;85.60;;;43.22;;
19903;SDS011;10114;50.970;4.962;2022-08-19T02:42:23;93.95;;;43.53;;
19903;SDS011;10114;50.970;4.962;2022-08-19T02:44:49;88.68;;;44.90;;
19903;SDS011;10114;50.970;4.962;2022-08-19T02:47:16;92.05;;;43.15;;
19903;SDS011;10114;50.970;4.962;2022-08-19T02:49:43;89.28;;;42.50;;
19903;SDS011;10114;50.970;4.962;2022-08-19T02:52:09;93.00;;;43.45;;
19903;SDS011;10114;50.970;4.962;2022-08-19T02:54:36;91.00;;;42.30;;
19903;SDS011;10114;50.970;4.962;2022-08-19T02:57:03;91.53;;;43.70;;
19903;SDS011;10114;50.970;4.962;2022-08-19T02:59:30;104.80;;;46.28;;
19903;SDS011;10114;50.970;4.962;2022-08-19T03:01:56;92.55;;;42.15;;
19903;SDS011;10114;50.970;4.962;2022-08-19T03:04:23;100.88;;;44.97;;
19903;SDS011;10114;50.970;4.962;2022-08-19T03:06:49;97.25;;;45.65;;
19903;SDS011;10114;50.970;4.962;2022-08-19T03:09:17;93.10;;;45.20;;
19903;SDS011;10114;50.970;4.962;2022-08-19T03:11:43;94.60;;;44.95;;
19903;SDS011;10114;50.970;4.962;2022-08-19T03:14:10;87.70;;;41.47;;
19903;SDS011;10114;50.970;4.962;2022-08-19T03:16:41;91.07;;;42.53;;
19903;SDS011;10114;50.970;4.962;2022-08-19T03:19:07;91.60;;;43.78;;
19903;SDS011;10114;50.970;4.962;2022-08-19T03:21:34;96.80;;;44.53;;
19903;SDS011;10114;50.970;4.962;2022-08-19T03:24:02;89.82;;;42.53;;
19903;SDS011;10114;50.970;4.962;2022-08-19T03:26:29;95.68;;;43.47;;
19903;SDS011;10114;50.970;4.962;2022-08-19T03:28:55;92.10;;;43.45;;
19903;SDS011;10114;50.970;4.962;2022-08-19T03:31:22;85.43;;;42.20;;
19903;SDS011;10114;50.970;4.962;2022-08-19T03:33:49;98.60;;;43.03;;
19903;SDS011;10114;50.970;4.962;2022-08-19T03:36:17;89.00;;;41.53;;
19903;SDS011;10114;50.970;4.962;2022-08-19T03:38:44;79.60;;;38.30;;
19903;SDS011;10114;50.970;4.962;2022-08-19T03:41:12;74.57;;;37.88;;
19903;SDS011;10114;50.970;4.962;2022-08-19T03:43:40;80.88;;;37.13;;
19903;SDS011;10114;50.970;4.962;2022-08-19T03:46:07;81.63;;;37.20;;
19903;SDS011;10114;50.970;4.962;2022-08-19T03:48:34;77.47;;;38.63;;
19903;SDS011;10114;50.970;4.962;2022-08-19T03:51:02;71.22;;;37.03;;
19903;SDS011;10114;50.970;4.962;2022-08-19T03:53:29;67.68;;;35.85;;
19903;SDS011;10114;50.970;4.962;2022-08-19T03:55:56;62.90;;;33.67;;
19903;SDS011;10114;50.970;4.962;2022-08-19T03:58:24;75.45;;;36.10;;
19903;SDS011;10114;50.970;4.962;2022-08-19T04:00:52;71.63;;;36.75;;
19903;SDS011;10114;50.970;4.962;2022-08-19T04:03:18;81.60;;;37.97;;
19903;SDS011;10114;50.970;4.962;2022-08-19T04:05:45;77.90;;;38.67;;
19903;SDS011;10114;50.970;4.962;2022-08-19T04:08:11;75.05;;;37.63;;
19903;SDS011;10114;50.970;4.962;2022-08-19T04:10:38;76.07;;;37.45;;
19903;SDS011;10114;50.970;4.962;2022-08-19T04:13:05;75.65;;;37.20;;
19903;SDS011;10114;50.970;4.962;2022-08-19T04:15:32;82.72;;;37.85;;
19903;SDS011;10114;50.970;4.962;2022-08-19T04:18:04;74.97;;;36.50;;
19903;SDS011;10114;50.970;4.962;2022-08-19T04:20:32;78.93;;;37.05;;
19903;SDS011;10114;50.970;4.962;2022-08-19T04:22:58;79.90;;;37.63;;
19903;SDS011;10114;50.970;4.962;2022-08-19T04:25:24;79.53;;;38.08;;
19903;SDS011;10114;50.970;4.962;2022-08-19T04:27:50;74.57;;;37.30;;
19903;SDS011;10114;50.970;4.962;2022-08-19T04:30:16;78.22;;;38.35;;
19903;SDS011;10114;50.970;4.962;2022-08-19T04:32:44;89.05;;;39.40;;
19903;SDS011;10114;50.970;4.962;2022-08-19T04:35:10;80.43;;;40.17;;
19903;SDS011;10114;50.970;4.962;2022-08-19T04:37:36;82.88;;;39.42;;
19903;SDS011;10114;50.970;4.962;2022-08-19T04:40:03;81.85;;;38.65;;
19903;SDS011;10114;50.970;4.962;2022-08-19T04:42:48;81.50;;;38.20;;
19903;SDS011;10114;50.970;4.962;2022-08-19T04:45:14;78.70;;;37.40;;
19903;SDS011;10114;50.970;4.962;2022-08-19T04:47:41;71.00;;;36.70;;
19903;SDS011;10114;50.970;4.962;2022-08-19T04:50:08;73.00;;;36.67;;
19903;SDS011;10114;50.970;4.962;2022-08-19T04:52:37;73.82;;;35.58;;
19903;SDS011;10114;50.970;4.962;2022-08-19T04:55:07;70.70;;;33.95;;
19903;SDS011;10114;50.970;4.962;2022-08-19T04:57:33;64.80;;;34.70;;
19903;SDS011;10114;50.970;4.962;2022-08-19T04:59:59;70.20;;;33.88;;
19903;SDS011;10114;50.970;4.962;2022-08-19T05:02:25;63.78;;;34.03;;
19903;SDS011;10114;50.970;4.962;2022-08-19T05:04:55;73.35;;;33.88;;
19903;SDS011;10114;50.970;4.962;2022-08-19T05:07:22;81.55;;;43.40;;
19903;SDS011;10114;50.970;4.962;2022-08-19T05:09:48;72.30;;;36.75;;
19903;SDS011;10114;50.970;4.962;2022-08-19T05:12:14;70.00;;;35.35;;
19903;SDS011;10114;50.970;4.962;2022-08-19T05:14:40;63.83;;;32.83;;
19903;SDS011;10114;50.970;4.962;2022-08-19T05:17:06;63.42;;;33.55;;
19903;SDS011;10114;50.970;4.962;2022-08-19T05:19:32;63.75;;;31.50;;
19903;SDS011;10114;50.970;4.962;2022-08-19T05:22:17;62.90;;;32.15;;
19903;SDS011;10114;50.970;4.962;2022-08-19T05:25:04;67.38;;;31.55;;
19903;SDS011;10114;50.970;4.962;2022-08-19T05:27:31;60.92;;;32.08;;
19903;SDS011;10114;50.970;4.962;2022-08-19T05:29:58;65.45;;;33.28;;
19903;SDS011;10114;50.970;4.962;2022-08-19T05:32:24;71.32;;;36.45;;
19903;SDS011;10114;50.970;4.962;2022-08-19T05:34:50;67.22;;;34.90;;
19903;SDS011;10114;50.970;4.962;2022-08-19T05:37:16;63.10;;;34.00;;
19903;SDS011;10114;50.970;4.962;2022-08-19T05:39:43;56.80;;;30.85;;
19903;SDS011;10114;50.970;4.962;2022-08-19T05:42:10;55.20;;;30.92;;
19903;SDS011;10114;50.970;4.962;2022-08-19T05:44:40;56.58;;;29.65;;
19903;SDS011;10114;50.970;4.962;2022-08-19T05:47:10;53.30;;;29.02;;
19903;SDS011;10114;50.970;4.962;2022-08-19T05:49:37;55.80;;;28.90;;
19903;SDS011;10114;50.970;4.962;2022-08-19T05:52:04;51.17;;;28.67;;
19903;SDS011;10114;50.970;4.962;2022-08-19T05:54:30;53.88;;;28.75;;
19903;SDS011;10114;50.970;4.962;2022-08-19T05:56:56;47.95;;;27.77;;
19903;SDS011;10114;50.970;4.962;2022-08-19T05:59:23;48.38;;;27.23;;
19903;SDS011;10114;50.970;4.962;2022-08-19T06:01:50;48.75;;;27.75;;
19903;SDS011;10114;50.970;4.962;2022-08-19T06:04:18;42.58;;;25.55;;
19903;SDS011;10114;50.970;4.962;2022-08-19T06:06:48;40.88;;;23.73;;
19903;SDS011;10114;50.970;4.962;2022-08-19T06:09:19;49.45;;;26.45;;
19903;SDS011;10114;50.970;4.962;2022-08-19T06:11:46;41.63;;;23.45;;
19903;SDS011;10114;50.970;4.962;2022-08-19T06:14:17;41.28;;;22.95;;
19903;SDS011;10114;50.970;4.962;2022-08-19T06:16:46;41.10;;;23.23;;
19903;SDS011;10114;50.970;4.962;2022-08-19T06:19:13;40.30;;;23.13;;
19903;SDS011;10114;50.970;4.962;2022-08-19T06:21:42;36.42;;;19.63;;
19903;SDS011;10114;50.970;4.962;2022-08-19T06:24:09;35.92;;;19.45;;
19903;SDS011;10114;50.970;4.962;2022-08-19T06:26:36;40.67;;;20.02;;
19903;SDS011;10114;50.970;4.962;2022-08-19T06:29:03;41.50;;;20.45;;
19903;SDS011;10114;50.970;4.962;2022-08-19T06:31:31;38.33;;;20.20;;
19903;SDS011;10114;50.970;4.962;2022-08-19T06:33:59;40.00;;;19.00;;
19903;SDS011;10114;50.970;4.962;2022-08-19T06:36:28;38.13;;;18.77;;
19903;SDS011;10114;50.970;4.962;2022-08-19T06:38:56;31.70;;;17.10;;
19903;SDS011;10114;50.970;4.962;2022-08-19T06:41:23;35.58;;;18.35;;
19903;SDS011;10114;50.970;4.962;2022-08-19T06:43:49;34.28;;;17.58;;
19903;SDS011;10114;50.970;4.962;2022-08-19T06:46:16;36.30;;;18.50;;
19903;SDS011;10114;50.970;4.962;2022-08-19T06:48:44;33.70;;;17.13;;
19903;SDS011;10114;50.970;4.962;2022-08-19T06:51:11;33.83;;;17.42;;
19903;SDS011;10114;50.970;4.962;2022-08-19T06:53:37;29.55;;;15.85;;
19903;SDS011;10114;50.970;4.962;2022-08-19T06:56:04;30.42;;;15.15;;
19903;SDS011;10114;50.970;4.962;2022-08-19T06:58:30;31.98;;;16.13;;
19903;SDS011;10114;50.970;4.962;2022-08-19T07:01:01;26.17;;;14.23;;
19903;SDS011;10114;50.970;4.962;2022-08-19T07:03:29;30.48;;;14.98;;
19903;SDS011;10114;50.970;4.962;2022-08-19T07:05:56;29.25;;;14.75;;
19903;SDS011;10114;50.970;4.962;2022-08-19T07:08:22;27.95;;;14.30;;
19903;SDS011;10114;50.970;4.962;2022-08-19T07:10:49;27.13;;;13.70;;
19903;SDS011;10114;50.970;4.962;2022-08-19T07:13:15;25.60;;;12.88;;
19903;SDS011;10114;50.970;4.962;2022-08-19T07:15:41;29.42;;;14.45;;
19903;SDS011;10114;50.970;4.962;2022-08-19T07:18:07;25.63;;;13.75;;
19903;SDS011;10114;50.970;4.962;2022-08-19T07:20:33;26.90;;;12.35;;
19903;SDS011;10114;50.970;4.962;2022-08-19T07:22:59;27.10;;;13.15;;
19903;SDS011;10114;50.970;4.962;2022-08-19T07:25:25;22.85;;;11.43;;
19903;SDS011;10114;50.970;4.962;2022-08-19T07:27:53;23.88;;;10.85;;
19903;SDS011;10114;50.970;4.962;2022-08-19T07:30:19;25.20;;;10.63;;
19903;SDS011;10114;50.970;4.962;2022-08-19T07:32:47;23.63;;;10.73;;
19903;SDS011;10114;50.970;4.962;2022-08-19T07:35:15;20.20;;;9.57;;
19903;SDS011;10114;50.970;4.962;2022-08-19T07:37:44;24.27;;;10.45;;
19903;SDS011;10114;50.970;4.962;2022-08-19T07:40:10;19.70;;;10.18;;
19903;SDS011;10114;50.970;4.962;2022-08-19T07:42:37;20.80;;;10.10;;
19903;SDS011;10114;50.970;4.962;2022-08-19T07:45:04;21.85;;;9.63;;
19903;SDS011;10114;50.970;4.962;2022-08-19T07:47:31;17.60;;;8.75;;
19903;SDS011;10114;50.970;4.962;2022-08-19T07:49:57;15.88;;;8.75;;
19903;SDS011;10114;50.970;4.962;2022-08-19T07:52:26;20.73;;;9.30;;
19903;SDS011;10114;50.970;4.962;2022-08-19T07:54:52;18.98;;;9.20;;
19903;SDS011;10114;50.970;4.962;2022-08-19T07:57:21;18.75;;;9.02;;
19903;SDS011;10114;50.970;4.962;2022-08-19T07:59:47;20.63;;;9.27;;
19903;SDS011;10114;50.970;4.962;2022-08-19T08:02:13;16.42;;;8.95;;
19903;SDS011;10114;50.970;4.962;2022-08-19T08:04:39;18.35;;;8.88;;
19903;SDS011;10114;50.970;4.962;2022-08-19T08:07:23;16.45;;;8.73;;
19903;SDS011;10114;50.970;4.962;2022-08-19T08:10:08;18.02;;;9.40;;
19903;SDS011;10114;50.970;4.962;2022-08-19T08:12:35;15.90;;;8.88;;
19903;SDS011;10114;50.970;4.962;2022-08-19T08:15:07;15.65;;;8.93;;
19903;SDS011;10114;50.970;4.962;2022-08-19T08:17:33;17.65;;;9.07;;
19903;SDS011;10114;50.970;4.962;2022-08-19T08:20:01;17.67;;;8.77;;
19903;SDS011;10114;50.970;4.962;2022-08-19T08:22:27;18.70;;;8.63;;
19903;SDS011;10114;50.970;4.962;2022-08-19T08:25:22;17.85;;;8.57;;
19903;SDS011;10114;50.970;4.962;2022-08-19T08:27:49;15.73;;;7.28;;
19903;SDS011;10114;50.970;4.962;2022-08-19T08:30:18;15.50;;;8.27;;
19903;SDS011;10114;50.970;4.962;2022-08-19T08:32:45;14.15;;;7.20;;
19903;SDS011;10114;50.970;4.962;2022-08-19T08:35:13;14.38;;;7.88;;
19903;SDS011;10114;50.970;4.962;2022-08-19T08:37:39;20.20;;;7.45;;
19903;SDS011;10114;50.970;4.962;2022-08-19T08:40:21;16.35;;;6.68;;
19903;SDS011;10114;50.970;4.962;2022-08-19T08:42:50;11.45;;;6.07;;
19903;SDS011;10114;50.970;4.962;2022-08-19T08:45:17;11.95;;;5.85;;
19903;SDS011;10114;50.970;4.962;2022-08-19T08:47:48;9.07;;;5.18;;
19903;SDS011;10114;50.970;4.962;2022-08-19T08:50:28;12.77;;;5.90;;
19903;SDS011;10114;50.970;4.962;2022-08-19T08:52:56;8.40;;;4.57;;
19903;SDS011;10114;50.970;4.962;2022-08-19T08:55:26;9.50;;;4.75;;
19903;SDS011;10114;50.970;4.962;2022-08-19T08:58:14;12.65;;;5.07;;
19903;SDS011;10114;50.970;4.962;2022-08-19T09:00:43;10.27;;;4.70;;
19903;SDS011;10114;50.970;4.962;2022-08-19T09:03:14;9.88;;;4.88;;
19903;SDS011;10114;50.970;4.962;2022-08-19T09:05:46;11.30;;;5.20;;
19903;SDS011;10114;50.970;4.962;2022-08-19T09:08:22;8.77;;;4.28;;
19903;SDS011;10114;50.970;4.962;2022-08-19T09:10:54;9.18;;;4.13;;
19903;SDS011;10114;50.970;4.962;2022-08-19T09:15:56;9.15;;;3.53;;
19903;SDS011;10114;50.970;4.962;2022-08-19T09:18:23;9.35;;;3.90;;
19903;SDS011;10114;50.970;4.962;2022-08-19T09:20:49;8.93;;;4.50;;
19903;SDS011;10114;50.970;4.962;2022-08-19T09:23:15;7.03;;;3.72;;
19903;SDS011;10114;50.970;4.962;2022-08-19T09:25:41;14.30;;;4.05;;
19903;SDS011;10114;50.970;4.962;2022-08-19T09:28:07;8.68;;;3.47;;
19903;SDS011;10114;50.970;4.962;2022-08-19T09:30:36;10.07;;;4.10;;
19903;SDS011;10114;50.970;4.962;2022-08-19T09:33:04;7.85;;;4.00;;
19903;SDS011;10114;50.970;4.962;2022-08-19T09:35:31;16.23;;;4.18;;
19903;SDS011;10114;50.970;4.962;2022-08-19T09:37:57;7.47;;;3.85;;
19903;SDS011;10114;50.970;4.962;2022-08-19T09:40:23;10.90;;;3.80;;
19903;SDS011;10114;50.970;4.962;2022-08-19T09:42:50;7.72;;;4.03;;
19903;SDS011;10114;50.970;4.962;2022-08-19T09:45:18;8.15;;;3.72;;
19903;SDS011;10114;50.970;4.962;2022-08-19T09:47:48;11.00;;;3.53;;
19903;SDS011;10114;50.970;4.962;2022-08-19T09:50:15;9.52;;;4.35;;
19903;SDS011;10114;50.970;4.962;2022-08-19T09:52:43;7.53;;;3.70;;
19903;SDS011;10114;50.970;4.962;2022-08-19T09:55:09;8.23;;;4.05;;
19903;SDS011;10114;50.970;4.962;2022-08-19T09:57:39;8.82;;;3.80;;
19903;SDS011;10114;50.970;4.962;2022-08-19T10:00:06;7.35;;;3.85;;
19903;SDS011;10114;50.970;4.962;2022-08-19T10:02:32;9.80;;;4.22;;
19903;SDS011;10114;50.970;4.962;2022-08-19T10:04:58;7.72;;;4.28;;
19903;SDS011;10114;50.970;4.962;2022-08-19T10:07:43;9.43;;;4.30;;
19903;SDS011;10114;50.970;4.962;2022-08-19T10:10:09;8.25;;;4.03;;
19903;SDS011;10114;50.970;4.962;2022-08-19T10:12:35;9.98;;;4.00;;
19903;SDS011;10114;50.970;4.962;2022-08-19T10:15:02;11.82;;;4.63;;
19903;SDS011;10114;50.970;4.962;2022-08-19T10:17:28;12.93;;;5.15;;
19903;SDS011;10114;50.970;4.962;2022-08-19T10:19:54;12.70;;;4.70;;
19903;SDS011;10114;50.970;4.962;2022-08-19T10:22:20;9.50;;;4.25;;
19903;SDS011;10114;50.970;4.962;2022-08-19T10:24:47;9.20;;;3.88;;
19903;SDS011;10114;50.970;4.962;2022-08-19T10:27:14;8.48;;;3.97;;
19903;SDS011;10114;50.970;4.962;2022-08-19T10:29:40;10.45;;;4.90;;
19903;SDS011;10114;50.970;4.962;2022-08-19T10:32:07;8.32;;;4.28;;
19903;SDS011;10114;50.970;4.962;2022-08-19T10:34:34;9.45;;;4.25;;
19903;SDS011;10114;50.970;4.962;2022-08-19T10:37:00;8.23;;;3.78;;
19903;SDS011;10114;50.970;4.962;2022-08-19T10:39:27;10.82;;;4.32;;
19903;SDS011;10114;50.970;4.962;2022-08-19T10:41:54;6.88;;;4.20;;
19903;SDS011;10114;50.970;4.962;2022-08-19T10:44:21;7.68;;;4.03;;
19903;SDS011;10114;50.970;4.962;2022-08-19T10:46:48;8.10;;;3.85;;
19903;SDS011;10114;50.970;4.962;2022-08-19T10:49:18;10.85;;;3.75;;
19903;SDS011;10114;50.970;4.962;2022-08-19T10:51:44;11.80;;;4.10;;
19903;SDS011;10114;50.970;4.962;2022-08-19T10:54:29;9.70;;;4.13;;
19903;SDS011;10114;50.970;4.962;2022-08-19T10:57:15;6.85;;;3.50;;
19903;SDS011;10114;50.970;4.962;2022-08-19T10:59:41;8.40;;;4.32;;
19903;SDS011;10114;50.970;4.962;2022-08-19T11:02:08;10.93;;;3.90;;
19903;SDS011;10114;50.970;4.962;2022-08-19T11:04:36;8.75;;;3.78;;
19903;SDS011;10114;50.970;4.962;2022-08-19T11:07:02;7.32;;;3.53;;
19903;SDS011;10114;50.970;4.962;2022-08-19T11:09:29;8.15;;;3.70;;
19903;SDS011;10114;50.970;4.962;2022-08-19T11:11:56;9.77;;;3.65;;
19903;SDS011;10114;50.970;4.962;2022-08-19T11:14:24;6.00;;;2.90;;
19903;SDS011;10114;50.970;4.962;2022-08-19T11:16:51;6.05;;;3.20;;
19903;SDS011;10114;50.970;4.962;2022-08-19T11:19:21;7.30;;;3.58;;
19903;SDS011;10114;50.970;4.962;2022-08-19T11:21:48;8.05;;;4.10;;
19903;SDS011;10114;50.970;4.962;2022-08-19T11:24:19;9.68;;;3.70;;
19903;SDS011;10114;50.970;4.962;2022-08-19T11:26:46;5.68;;;2.85;;
19903;SDS011;10114;50.970;4.962;2022-08-19T11:29:14;8.02;;;3.60;;
19903;SDS011;10114;50.970;4.962;2022-08-19T11:31:42;6.78;;;3.45;;
19903;SDS011;10114;50.970;4.962;2022-08-19T11:34:09;6.75;;;3.35;;
19903;SDS011;10114;50.970;4.962;2022-08-19T11:36:36;6.60;;;3.55;;
19903;SDS011;10114;50.970;4.962;2022-08-19T11:39:04;8.65;;;4.10;;
19903;SDS011;10114;50.970;4.962;2022-08-19T11:41:31;8.10;;;4.20;;
19903;SDS011;10114;50.970;4.962;2022-08-19T11:43:57;9.88;;;4.10;;
19903;SDS011;10114;50.970;4.962;2022-08-19T11:46:24;7.82;;;3.67;;
19903;SDS011;10114;50.970;4.962;2022-08-19T11:48:50;6.97;;;3.90;;
19903;SDS011;10114;50.970;4.962;2022-08-19T11:51:18;8.90;;;4.68;;
19903;SDS011;10114;50.970;4.962;2022-08-19T11:53:45;8.38;;;4.10;;
19903;SDS011;10114;50.970;4.962;2022-08-19T11:56:12;8.27;;;3.50;;
19903;SDS011;10114;50.970;4.962;2022-08-19T11:58:38;5.63;;;3.42;;
19903;SDS011;10114;50.970;4.962;2022-08-19T12:01:13;6.20;;;3.03;;
19903;SDS011;10114;50.970;4.962;2022-08-19T12:03:43;7.55;;;3.65;;
19903;SDS011;10114;50.970;4.962;2022-08-19T12:06:16;7.93;;;2.95;;
19903;SDS011;10114;50.970;4.962;2022-08-19T12:08:42;9.80;;;3.30;;
19903;SDS011;10114;50.970;4.962;2022-08-19T12:11:09;9.73;;;3.50;;
19903;SDS011;10114;50.970;4.962;2022-08-19T12:13:35;7.35;;;3.22;;
19903;SDS011;10114;50.970;4.962;2022-08-19T12:16:12;5.40;;;3.28;;
19903;SDS011;10114;50.970;4.962;2022-08-19T12:18:40;7.80;;;3.45;;
19903;SDS011;10114;50.970;4.962;2022-08-19T12:21:08;7.65;;;2.83;;
19903;SDS011;10114;50.970;4.962;2022-08-19T12:23:36;8.45;;;3.08;;
19903;SDS011;10114;50.970;4.962;2022-08-19T12:26:02;6.80;;;2.60;;
19903;SDS011;10114;50.970;4.962;2022-08-19T12:28:28;6.65;;;2.80;;
19903;SDS011;10114;50.970;4.962;2022-08-19T12:30:55;5.85;;;2.67;;
19903;SDS011;10114;50.970;4.962;2022-08-19T12:33:22;3.95;;;2.03;;
19903;SDS011;10114;50.970;4.962;2022-08-19T12:35:50;5.25;;;2.30;;
19903;SDS011;10114;50.970;4.962;2022-08-19T12:38:16;5.85;;;3.10;;
19903;SDS011;10114;50.970;4.962;2022-08-19T12:40:46;6.63;;;2.63;;
19903;SDS011;10114;50.970;4.962;2022-08-19T12:43:13;6.68;;;2.85;;
19903;SDS011;10114;50.970;4.962;2022-08-19T12:45:41;6.80;;;2.67;;
19903;SDS011;10114;50.970;4.962;2022-08-19T12:48:07;6.65;;;2.92;;
19903;SDS011;10114;50.970;4.962;2022-08-19T12:50:34;5.25;;;2.70;;
19903;SDS011;10114;50.970;4.962;2022-08-19T12:53:00;6.25;;;3.15;;
19903;SDS011;10114;50.970;4.962;2022-08-19T12:55:26;6.32;;;3.05;;
19903;SDS011;10114;50.970;4.962;2022-08-19T12:57:54;6.07;;;2.78;;
19903;SDS011;10114;50.970;4.962;2022-08-19T13:00:20;7.05;;;3.38;;
19903;SDS011;10114;50.970;4.962;2022-08-19T13:02:50;8.45;;;3.25;;
19903;SDS011;10114;50.970;4.962;2022-08-19T13:05:20;5.55;;;2.90;;
19903;SDS011;10114;50.970;4.962;2022-08-19T13:07:50;4.80;;;2.67;;
19903;SDS011;10114;50.970;4.962;2022-08-19T13:10:17;7.60;;;2.53;;
19903;SDS011;10114;50.970;4.962;2022-08-19T13:12:45;6.28;;;2.88;;
19903;SDS011;10114;50.970;4.962;2022-08-19T13:15:12;5.25;;;3.00;;
19903;SDS011;10114;50.970;4.962;2022-08-19T13:17:39;5.97;;;3.35;;
19903;SDS011;10114;50.970;4.962;2022-08-19T13:20:06;8.68;;;4.38;;
19903;SDS011;10114;50.970;4.962;2022-08-19T13:22:35;8.15;;;3.72;;
19903;SDS011;10114;50.970;4.962;2022-08-19T13:25:02;6.50;;;3.22;;
19903;SDS011;10114;50.970;4.962;2022-08-19T13:27:28;5.10;;;2.83;;
19903;SDS011;10114;50.970;4.962;2022-08-19T13:29:54;8.55;;;3.50;;
19903;SDS011;10114;50.970;4.962;2022-08-19T13:32:39;5.88;;;2.95;;
19903;SDS011;10114;50.970;4.962;2022-08-19T13:35:23;6.95;;;3.60;;
19903;SDS011;10114;50.970;4.962;2022-08-19T13:37:49;5.95;;;3.75;;
19903;SDS011;10114;50.970;4.962;2022-08-19T13:40:20;7.65;;;3.70;;
19903;SDS011;10114;50.970;4.962;2022-08-19T13:42:49;7.22;;;3.70;;
19903;SDS011;10114;50.970;4.962;2022-08-19T13:45:16;9.77;;;4.20;;
19903;SDS011;10114;50.970;4.962;2022-08-19T13:47:45;6.88;;;3.30;;
19903;SDS011;10114;50.970;4.962;2022-08-19T13:50:11;8.90;;;4.10;;
19903;SDS011;10114;50.970;4.962;2022-08-19T13:52:38;9.20;;;4.10;;
19903;SDS011;10114;50.970;4.962;2022-08-19T13:55:05;7.10;;;3.97;;
19903;SDS011;10114;50.970;4.962;2022-08-19T13:57:31;7.95;;;3.85;;
19903;SDS011;10114;50.970;4.962;2022-08-19T13:59:57;6.78;;;3.55;;
19903;SDS011;10114;50.970;4.962;2022-08-19T14:02:24;7.43;;;4.05;;
19903;SDS011;10114;50.970;4.962;2022-08-19T14:04:51;8.38;;;4.43;;
19903;SDS011;10114;50.970;4.962;2022-08-19T14:07:17;8.80;;;4.22;;
19903;SDS011;10114;50.970;4.962;2022-08-19T14:09:43;9.30;;;4.05;;
19903;SDS011;10114;50.970;4.962;2022-08-19T14:12:09;5.53;;;3.40;;
19903;SDS011;10114;50.970;4.962;2022-08-19T14:14:38;6.07;;;3.35;;
19903;SDS011;10114;50.970;4.962;2022-08-19T14:17:08;8.23;;;4.28;;
19903;SDS011;10114;50.970;4.962;2022-08-19T14:19:34;8.63;;;3.65;;
19903;SDS011;10114;50.970;4.962;2022-08-19T14:22:01;7.03;;;4.32;;
19903;SDS011;10114;50.970;4.962;2022-08-19T14:24:27;5.63;;;3.78;;
19903;SDS011;10114;50.970;4.962;2022-08-19T14:26:53;7.20;;;3.92;;
19903;SDS011;10114;50.970;4.962;2022-08-19T14:29:19;7.45;;;3.70;;
19903;SDS011;10114;50.970;4.962;2022-08-19T14:31:45;9.40;;;4.00;;
19903;SDS011;10114;50.970;4.962;2022-08-19T14:34:11;6.60;;;3.53;;
19903;SDS011;10114;50.970;4.962;2022-08-19T14:36:37;8.13;;;3.67;;
19903;SDS011;10114;50.970;4.962;2022-08-19T14:39:03;6.32;;;3.20;;
19903;SDS011;10114;50.970;4.962;2022-08-19T14:41:30;5.43;;;3.80;;